Main page
METAR-TAF:

METAR-TAF

Airports :

Kunming Changshui International Airport

Kunming, China

latitude: 25-01N, longitude: 102-41E, elevation: 1892 m

Current weather observation

The report was made 22 minutes ago, at 23:00 UTC
Wind 4 kt from the North
Temperature 5°C
Humidity 93%
Pressure 1024 hPa
Visibility: 0600 m
fog

METAR: ZPPP 212300Z 01002MPS 0600 R04/0700V1300D R03/0750N FG VV002 05/04 Q1024 NOSIG

Time: 07:22 (23:22 UTC)

Forecast

The report was made 10 hours and 5 minutes ago, at 13:17 UTC
Forecast valid from 21 at 18 UTC to 22 at 18 UTC
Wind 8 kt from the Northeast
Visibility: 3100 m
Scattered clouds at a height of 300 ft
Broken clouds at a height of 3000 ft
mist

TAF: ZPPP 211317Z 2118/2218 04004MPS 3100 BR SCT003 BKN030 TX15/2208Z TN05/2123Z

Weather observations and forecasts of more than 4000 airports (METAR and TAF reports).

The available stations are represented by yellow and red dots on the map.

Hover mouse over dot to see the name of the station.

Then click to see weather observations and forecasts.

To change the map : click on the green buttons with a black cross to zoom in, on the green button with a dash to zoom out, or on the green arrows for adjacent maps.


METAR-TAF: